sensor_id;sensor_type;location;lat;lon;timestamp;P1;durP1;ratioP1;P2;durP2;ratioP2
15915;SDS011;8057;47.830;-3.870;2023-03-01T06:44:13;22.03;;;19.83;;
15915;SDS011;8057;47.830;-3.870;2023-03-01T06:48:32;21.70;;;19.40;;
15915;SDS011;8057;47.830;-3.870;2023-03-01T06:52:47;21.87;;;19.60;;
15915;SDS011;8057;47.830;-3.870;2023-03-01T06:57:31;21.90;;;19.70;;
15915;SDS011;8057;47.830;-3.870;2023-03-01T07:01:44;21.33;;;19.23;;
15915;SDS011;8057;47.830;-3.870;2023-03-01T07:05:54;21.13;;;19.03;;
15915;SDS011;8057;47.830;-3.870;2023-03-01T07:10:11;19.77;;;17.77;;
15915;SDS011;8057;47.830;-3.870;2023-03-01T07:14:23;20.27;;;18.17;;
15915;SDS011;8057;47.830;-3.870;2023-03-01T07:18:38;18.97;;;17.17;;
15915;SDS011;8057;47.830;-3.870;2023-03-01T07:22:54;18.93;;;17.03;;
15915;SDS011;8057;47.830;-3.870;2023-03-01T07:27:17;19.67;;;17.70;;
15915;SDS011;8057;47.830;-3.870;2023-03-01T07:31:31;17.47;;;15.67;;
15915;SDS011;8057;47.830;-3.870;2023-03-01T07:56:29;15.70;;;14.00;;
15915;SDS011;8057;47.830;-3.870;2023-03-01T08:01:20;16.50;;;14.90;;
15915;SDS011;8057;47.830;-3.870;2023-03-01T08:06:05;15.83;;;14.33;;
15915;SDS011;8057;47.830;-3.870;2023-03-01T09:47:56;14.07;;;11.80;;
15915;SDS011;8057;47.830;-3.870;2023-03-01T09:53:00;13.13;;;11.87;;
15915;SDS011;8057;47.830;-3.870;2023-03-01T09:57:45;12.77;;;11.57;;
15915;SDS011;8057;47.830;-3.870;2023-03-01T10:02:35;13.43;;;12.23;;
15915;SDS011;8057;47.830;-3.870;2023-03-01T10:11:45;13.50;;;12.20;;
15915;SDS011;8057;47.830;-3.870;2023-03-01T10:16:40;16.43;;;14.83;;
15915;SDS011;8057;47.830;-3.870;2023-03-01T10:21:00;15.70;;;14.17;;
15915;SDS011;8057;47.830;-3.870;2023-03-01T10:26:03;14.80;;;13.43;;
15915;SDS011;8057;47.830;-3.870;2023-03-01T10:30:29;15.27;;;13.87;;
15915;SDS011;8057;47.830;-3.870;2023-03-01T10:35:00;16.17;;;14.67;;
15915;SDS011;8057;47.830;-3.870;2023-03-01T10:39:13;16.10;;;14.53;;
15915;SDS011;8057;47.830;-3.870;2023-03-01T10:44:00;16.73;;;15.13;;
15915;SDS011;8057;47.830;-3.870;2023-03-01T10:48:15;16.77;;;15.17;;
15915;SDS011;8057;47.830;-3.870;2023-03-01T10:52:33;17.37;;;15.67;;
15915;SDS011;8057;47.830;-3.870;2023-03-01T10:56:48;16.00;;;14.50;;
15915;SDS011;8057;47.830;-3.870;2023-03-01T11:01:25;17.23;;;15.57;;
15915;SDS011;8057;47.830;-3.870;2023-03-01T11:19:59;17.23;;;15.63;;
15915;SDS011;8057;47.830;-3.870;2023-03-01T11:43:41;17.60;;;15.90;;
15915;SDS011;8057;47.830;-3.870;2023-03-01T16:25:10;22.47;;;20.27;;
15915;SDS011;8057;47.830;-3.870;2023-03-01T19:11:03;22.67;;;20.03;;
15915;SDS011;8057;47.830;-3.870;2023-03-01T19:24:38;19.30;;;17.30;;
15915;SDS011;8057;47.830;-3.870;2023-03-01T19:39:05;17.40;;;15.50;;
15915;SDS011;8057;47.830;-3.870;2023-03-01T19:43:19;17.77;;;15.87;;
15915;SDS011;8057;47.830;-3.870;2023-03-01T19:48:26;16.97;;;15.37;;
15915;SDS011;8057;47.830;-3.870;2023-03-01T19:57:40;16.27;;;14.53;;
15915;SDS011;8057;47.830;-3.870;2023-03-01T20:32:50;16.20;;;14.50;;
15915;SDS011;8057;47.830;-3.870;2023-03-01T20:36:59;15.17;;;13.53;;
15915;SDS011;8057;47.830;-3.870;2023-03-01T20:41:10;15.33;;;13.80;;
15915;SDS011;8057;47.830;-3.870;2023-03-01T20:45:22;15.40;;;13.80;;
15915;SDS011;8057;47.830;-3.870;2023-03-01T20:54:02;15.47;;;13.87;;
15915;SDS011;8057;47.830;-3.870;2023-03-01T20:58:21;15.27;;;13.73;;
15915;SDS011;8057;47.830;-3.870;2023-03-01T21:03:14;15.77;;;14.13;;
15915;SDS011;8057;47.830;-3.870;2023-03-01T21:07:43;15.07;;;13.77;;
15915;SDS011;8057;47.830;-3.870;2023-03-01T21:16:32;15.53;;;13.80;;
15915;SDS011;8057;47.830;-3.870;2023-03-01T21:20:47;16.03;;;14.53;;
15915;SDS011;8057;47.830;-3.870;2023-03-01T21:24:58;16.97;;;15.27;;
15915;SDS011;8057;47.830;-3.870;2023-03-01T21:29:08;17.43;;;15.67;;
15915;SDS011;8057;47.830;-3.870;2023-03-01T21:33:17;16.67;;;15.00;;
15915;SDS011;8057;47.830;-3.870;2023-03-01T21:37:27;16.30;;;14.77;;
15915;SDS011;8057;47.830;-3.870;2023-03-01T21:41:38;17.23;;;15.53;;
15915;SDS011;8057;47.830;-3.870;2023-03-01T21:45:47;16.13;;;14.53;;
15915;SDS011;8057;47.830;-3.870;2023-03-01T21:49:57;14.87;;;13.53;;
15915;SDS011;8057;47.830;-3.870;2023-03-01T21:54:06;15.00;;;13.60;;
15915;SDS011;8057;47.830;-3.870;2023-03-01T21:58:17;16.43;;;14.90;;
15915;SDS011;8057;47.830;-3.870;2023-03-01T22:02:27;16.70;;;15.10;;
15915;SDS011;8057;47.830;-3.870;2023-03-01T22:06:38;18.93;;;17.13;;
15915;SDS011;8057;47.830;-3.870;2023-03-01T22:10:49;18.13;;;16.33;;
15915;SDS011;8057;47.830;-3.870;2023-03-01T22:24:28;16.90;;;15.20;;
15915;SDS011;8057;47.830;-3.870;2023-03-01T22:38:17;15.40;;;13.90;;
